sensor_id;sensor_type;location;lat;lon;timestamp;P1;durP1;ratioP1;P2;durP2;ratioP2
20855;SDS011;63058;49.424;8.420;2023-01-15T00:01:28;1.30;;;0.40;;
20855;SDS011;63058;49.424;8.420;2023-01-15T00:03:55;0.40;;;0.30;;
20855;SDS011;63058;49.424;8.420;2023-01-15T00:06:22;1.42;;;0.45;;
20855;SDS011;63058;49.424;8.420;2023-01-15T00:08:49;0.60;;;0.38;;
20855;SDS011;63058;49.424;8.420;2023-01-15T00:11:15;0.70;;;0.40;;
20855;SDS011;63058;49.424;8.420;2023-01-15T00:13:41;1.02;;;0.30;;
20855;SDS011;63058;49.424;8.420;2023-01-15T00:16:11;1.02;;;0.32;;
20855;SDS011;63058;49.424;8.420;2023-01-15T00:18:38;0.68;;;0.50;;
20855;SDS011;63058;49.424;8.420;2023-01-15T00:21:05;0.98;;;0.70;;
20855;SDS011;63058;49.424;8.420;2023-01-15T00:23:32;0.63;;;0.43;;
20855;SDS011;63058;49.424;8.420;2023-01-15T00:26:17;0.70;;;0.52;;
20855;SDS011;63058;49.424;8.420;2023-01-15T00:29:03;0.68;;;0.47;;
20855;SDS011;63058;49.424;8.420;2023-01-15T00:31:29;1.77;;;0.35;;
20855;SDS011;63058;49.424;8.420;2023-01-15T00:33:57;0.75;;;0.40;;
20855;SDS011;63058;49.424;8.420;2023-01-15T00:36:23;0.50;;;0.50;;
20855;SDS011;63058;49.424;8.420;2023-01-15T00:38:49;1.15;;;0.55;;
20855;SDS011;63058;49.424;8.420;2023-01-15T00:41:15;0.63;;;0.50;;
20855;SDS011;63058;49.424;8.420;2023-01-15T00:43:41;0.90;;;0.45;;
20855;SDS011;63058;49.424;8.420;2023-01-15T00:46:06;0.73;;;0.40;;
20855;SDS011;63058;49.424;8.420;2023-01-15T00:48:33;0.70;;;0.40;;
20855;SDS011;63058;49.424;8.420;2023-01-15T00:50:59;0.43;;;0.30;;
20855;SDS011;63058;49.424;8.420;2023-01-15T00:53:24;0.40;;;0.38;;
20855;SDS011;63058;49.424;8.420;2023-01-15T00:55:50;0.80;;;0.32;;
20855;SDS011;63058;49.424;8.420;2023-01-15T00:58:15;0.50;;;0.38;;
20855;SDS011;63058;49.424;8.420;2023-01-15T01:00:41;1.10;;;0.70;;
20855;SDS011;63058;49.424;8.420;2023-01-15T01:03:07;1.30;;;0.38;;
20855;SDS011;63058;49.424;8.420;2023-01-15T01:05:32;1.42;;;0.50;;
20855;SDS011;63058;49.424;8.420;2023-01-15T01:07:58;0.55;;;0.32;;
20855;SDS011;63058;49.424;8.420;2023-01-15T01:10:24;0.40;;;0.30;;
20855;SDS011;63058;49.424;8.420;2023-01-15T01:12:51;0.55;;;0.30;;
20855;SDS011;63058;49.424;8.420;2023-01-15T01:15:17;0.85;;;0.40;;
20855;SDS011;63058;49.424;8.420;2023-01-15T01:17:44;1.38;;;0.45;;
20855;SDS011;63058;49.424;8.420;2023-01-15T01:20:11;0.60;;;0.45;;
20855;SDS011;63058;49.424;8.420;2023-01-15T01:22:38;0.47;;;0.30;;
20855;SDS011;63058;49.424;8.420;2023-01-15T01:25:04;0.30;;;0.30;;
20855;SDS011;63058;49.424;8.420;2023-01-15T01:27:30;1.48;;;0.30;;
20855;SDS011;63058;49.424;8.420;2023-01-15T01:29:56;0.77;;;0.40;;
20855;SDS011;63058;49.424;8.420;2023-01-15T01:32:21;0.75;;;0.30;;
20855;SDS011;63058;49.424;8.420;2023-01-15T01:34:47;1.05;;;0.40;;
20855;SDS011;63058;49.424;8.420;2023-01-15T01:37:12;0.60;;;0.30;;
20855;SDS011;63058;49.424;8.420;2023-01-15T01:39:38;1.55;;;0.50;;
20855;SDS011;63058;49.424;8.420;2023-01-15T01:42:07;0.22;;;0.20;;
20855;SDS011;63058;49.424;8.420;2023-01-15T01:47:08;0.95;;;0.40;;
20855;SDS011;63058;49.424;8.420;2023-01-15T01:49:37;0.45;;;0.30;;
20855;SDS011;63058;49.424;8.420;2023-01-15T01:52:12;0.80;;;0.50;;
20855;SDS011;63058;49.424;8.420;2023-01-15T01:54:42;0.40;;;0.30;;
20855;SDS011;63058;49.424;8.420;2023-01-15T01:57:10;0.57;;;0.40;;
20855;SDS011;63058;49.424;8.420;2023-01-15T01:59:37;0.30;;;0.30;;
20855;SDS011;63058;49.424;8.420;2023-01-15T02:02:03;0.20;;;0.20;;
20855;SDS011;63058;49.424;8.420;2023-01-15T02:04:29;0.30;;;0.28;;
20855;SDS011;63058;49.424;8.420;2023-01-15T02:06:56;0.50;;;0.30;;
20855;SDS011;63058;49.424;8.420;2023-01-15T02:09:24;0.25;;;0.20;;
20855;SDS011;63058;49.424;8.420;2023-01-15T02:11:49;0.30;;;0.30;;
20855;SDS011;63058;49.424;8.420;2023-01-15T02:14:25;0.55;;;0.30;;
20855;SDS011;63058;49.424;8.420;2023-01-15T02:22:50;0.28;;;0.20;;
20855;SDS011;63058;49.424;8.420;2023-01-15T02:28:26;0.22;;;0.22;;
20855;SDS011;63058;49.424;8.420;2023-01-15T02:30:59;0.30;;;0.30;;
20855;SDS011;63058;49.424;8.420;2023-01-15T02:33:36;0.20;;;0.20;;
20855;SDS011;63058;49.424;8.420;2023-01-15T02:36:06;0.43;;;0.40;;
20855;SDS011;63058;49.424;8.420;2023-01-15T02:38:36;0.32;;;0.20;;
20855;SDS011;63058;49.424;8.420;2023-01-15T02:41:06;1.30;;;0.40;;
20855;SDS011;63058;49.424;8.420;2023-01-15T02:43:40;0.60;;;0.20;;
20855;SDS011;63058;49.424;8.420;2023-01-15T02:46:13;0.40;;;0.30;;
20855;SDS011;63058;49.424;8.420;2023-01-15T02:48:40;0.70;;;0.40;;
20855;SDS011;63058;49.424;8.420;2023-01-15T02:51:15;0.47;;;0.22;;
20855;SDS011;63058;49.424;8.420;2023-01-15T02:53:47;0.22;;;0.22;;
20855;SDS011;63058;49.424;8.420;2023-01-15T02:56:16;1.45;;;0.20;;
20855;SDS011;63058;49.424;8.420;2023-01-15T02:58:44;0.88;;;0.28;;
20855;SDS011;63058;49.424;8.420;2023-01-15T03:01:15;0.30;;;0.20;;
20855;SDS011;63058;49.424;8.420;2023-01-15T03:06:32;0.17;;;0.17;;
20855;SDS011;63058;49.424;8.420;2023-01-15T03:09:05;0.57;;;0.32;;
20855;SDS011;63058;49.424;8.420;2023-01-15T03:11:32;0.88;;;0.30;;
20855;SDS011;63058;49.424;8.420;2023-01-15T03:14:04;0.10;;;0.10;;
20855;SDS011;63058;49.424;8.420;2023-01-15T03:16:34;0.00;;;0.00;;
20855;SDS011;63058;49.424;8.420;2023-01-15T03:21:31;0.03;;;0.03;;
20855;SDS011;63058;49.424;8.420;2023-01-15T03:24:05;0.10;;;0.10;;
20855;SDS011;63058;49.424;8.420;2023-01-15T03:26:34;0.10;;;0.10;;
20855;SDS011;63058;49.424;8.420;2023-01-15T03:28:59;0.10;;;0.08;;
20855;SDS011;63058;49.424;8.420;2023-01-15T03:31:28;0.00;;;0.00;;
20855;SDS011;63058;49.424;8.420;2023-01-15T03:33:54;0.03;;;0.00;;
20855;SDS011;63058;49.424;8.420;2023-01-15T03:36:19;0.10;;;0.10;;
20855;SDS011;63058;49.424;8.420;2023-01-15T03:38:45;0.10;;;0.10;;
20855;SDS011;63058;49.424;8.420;2023-01-15T03:47:03;0.10;;;0.10;;
20855;SDS011;63058;49.424;8.420;2023-01-15T03:52:29;0.10;;;0.10;;
20855;SDS011;63058;49.424;8.420;2023-01-15T03:55:07;1.10;;;0.28;;
20855;SDS011;63058;49.424;8.420;2023-01-15T04:02:56;0.20;;;0.10;;
20855;SDS011;63058;49.424;8.420;2023-01-15T04:05:23;0.00;;;0.00;;
20855;SDS011;63058;49.424;8.420;2023-01-15T04:07:50;0.63;;;0.10;;
20855;SDS011;63058;49.424;8.420;2023-01-15T04:10:18;0.10;;;0.10;;
20855;SDS011;63058;49.424;8.420;2023-01-15T04:12:43;0.15;;;0.10;;
20855;SDS011;63058;49.424;8.420;2023-01-15T04:15:09;0.75;;;0.10;;
20855;SDS011;63058;49.424;8.420;2023-01-15T04:17:36;0.00;;;0.00;;
20855;SDS011;63058;49.424;8.420;2023-01-15T04:20:02;0.13;;;0.10;;
20855;SDS011;63058;49.424;8.420;2023-01-15T04:22:30;0.90;;;0.10;;
20855;SDS011;63058;49.424;8.420;2023-01-15T04:24:56;0.20;;;0.10;;
20855;SDS011;63058;49.424;8.420;2023-01-15T04:27:21;0.30;;;0.10;;
20855;SDS011;63058;49.424;8.420;2023-01-15T04:29:47;0.17;;;0.10;;
20855;SDS011;63058;49.424;8.420;2023-01-15T04:32:13;0.10;;;0.10;;
20855;SDS011;63058;49.424;8.420;2023-01-15T04:34:39;0.40;;;0.10;;
20855;SDS011;63058;49.424;8.420;2023-01-15T04:37:04;0.10;;;0.10;;
20855;SDS011;63058;49.424;8.420;2023-01-15T04:39:30;0.10;;;0.10;;
20855;SDS011;63058;49.424;8.420;2023-01-15T04:42:22;0.30;;;0.10;;
20855;SDS011;63058;49.424;8.420;2023-01-15T04:58:22;0.63;;;0.10;;
20855;SDS011;63058;49.424;8.420;2023-01-15T05:04:27;0.85;;;0.05;;
20855;SDS011;63058;49.424;8.420;2023-01-15T05:07:28;0.63;;;0.03;;
20855;SDS011;63058;49.424;8.420;2023-01-15T05:10:31;0.10;;;0.10;;
20855;SDS011;63058;49.424;8.420;2023-01-15T05:13:21;0.17;;;0.10;;
20855;SDS011;63058;49.424;8.420;2023-01-15T05:16:20;0.10;;;0.10;;
20855;SDS011;63058;49.424;8.420;2023-01-15T05:19:15;0.10;;;0.10;;
20855;SDS011;63058;49.424;8.420;2023-01-15T05:25:09;0.10;;;0.10;;
20855;SDS011;63058;49.424;8.420;2023-01-15T05:28:08;0.20;;;0.20;;
20855;SDS011;63058;49.424;8.420;2023-01-15T05:34:01;0.75;;;0.20;;
20855;SDS011;63058;49.424;8.420;2023-01-15T05:36:46;0.10;;;0.10;;
20855;SDS011;63058;49.424;8.420;2023-01-15T05:39:45;0.13;;;0.13;;
20855;SDS011;63058;49.424;8.420;2023-01-15T05:46:11;0.10;;;0.10;;
20855;SDS011;63058;49.424;8.420;2023-01-15T05:48:48;0.10;;;0.10;;
20855;SDS011;63058;49.424;8.420;2023-01-15T05:51:32;0.28;;;0.10;;
20855;SDS011;63058;49.424;8.420;2023-01-15T05:54:08;0.00;;;0.00;;
20855;SDS011;63058;49.424;8.420;2023-01-15T05:57:24;0.10;;;0.10;;
20855;SDS011;63058;49.424;8.420;2023-01-15T05:59:28;0.10;;;0.10;;
20855;SDS011;63058;49.424;8.420;2023-01-15T06:02:01;0.10;;;0.10;;
20855;SDS011;63058;49.424;8.420;2023-01-15T06:04:48;0.30;;;0.10;;
20855;SDS011;63058;49.424;8.420;2023-01-15T06:07:38;0.20;;;0.20;;
20855;SDS011;63058;49.424;8.420;2023-01-15T06:10:25;0.50;;;0.15;;
20855;SDS011;63058;49.424;8.420;2023-01-15T06:13:03;0.20;;;0.10;;
20855;SDS011;63058;49.424;8.420;2023-01-15T06:16:05;0.20;;;0.20;;
20855;SDS011;63058;49.424;8.420;2023-01-15T06:21:30;0.30;;;0.30;;
20855;SDS011;63058;49.424;8.420;2023-01-15T06:24:19;0.20;;;0.20;;
20855;SDS011;63058;49.424;8.420;2023-01-15T06:26:50;0.20;;;0.20;;
20855;SDS011;63058;49.424;8.420;2023-01-15T06:32:51;0.20;;;0.20;;
20855;SDS011;63058;49.424;8.420;2023-01-15T06:36:20;0.40;;;0.30;;
20855;SDS011;63058;49.424;8.420;2023-01-15T06:42:46;0.20;;;0.20;;
20855;SDS011;63058;49.424;8.420;2023-01-15T06:49:46;0.20;;;0.20;;
20855;SDS011;63058;49.424;8.420;2023-01-15T06:52:43;0.28;;;0.20;;
20855;SDS011;63058;49.424;8.420;2023-01-15T07:05:41;0.30;;;0.20;;
20855;SDS011;63058;49.424;8.420;2023-01-15T07:11:49;0.40;;;0.15;;
20855;SDS011;63058;49.424;8.420;2023-01-15T07:14:58;0.40;;;0.20;;
20855;SDS011;63058;49.424;8.420;2023-01-15T07:17:23;0.52;;;0.10;;
20855;SDS011;63058;49.424;8.420;2023-01-15T07:19:49;0.80;;;0.40;;
20855;SDS011;63058;49.424;8.420;2023-01-15T07:22:14;0.10;;;0.10;;
20855;SDS011;63058;49.424;8.420;2023-01-15T07:24:40;0.10;;;0.10;;
20855;SDS011;63058;49.424;8.420;2023-01-15T07:27:05;0.60;;;0.30;;
20855;SDS011;63058;49.424;8.420;2023-01-15T07:29:31;0.17;;;0.10;;
20855;SDS011;63058;49.424;8.420;2023-01-15T07:31:57;0.10;;;0.10;;
20855;SDS011;63058;49.424;8.420;2023-01-15T07:34:22;0.22;;;0.10;;
20855;SDS011;63058;49.424;8.420;2023-01-15T07:36:48;0.33;;;0.10;;
20855;SDS011;63058;49.424;8.420;2023-01-15T07:39:13;0.23;;;0.10;;
20855;SDS011;63058;49.424;8.420;2023-01-15T07:41:39;0.10;;;0.10;;
20855;SDS011;63058;49.424;8.420;2023-01-15T07:44:23;0.25;;;0.10;;
20855;SDS011;63058;49.424;8.420;2023-01-15T07:47:15;0.03;;;0.03;;
20855;SDS011;63058;49.424;8.420;2023-01-15T07:50:05;0.10;;;0.10;;
20855;SDS011;63058;49.424;8.420;2023-01-15T07:52:33;0.10;;;0.10;;
20855;SDS011;63058;49.424;8.420;2023-01-15T07:54:58;0.10;;;0.10;;
20855;SDS011;63058;49.424;8.420;2023-01-15T07:57:25;0.10;;;0.10;;
20855;SDS011;63058;49.424;8.420;2023-01-15T07:59:51;0.20;;;0.00;;
20855;SDS011;63058;49.424;8.420;2023-01-15T08:02:16;0.00;;;0.00;;
20855;SDS011;63058;49.424;8.420;2023-01-15T08:04:42;0.07;;;0.00;;
20855;SDS011;63058;49.424;8.420;2023-01-15T08:07:08;0.10;;;0.10;;
20855;SDS011;63058;49.424;8.420;2023-01-15T08:09:34;0.03;;;0.03;;
20855;SDS011;63058;49.424;8.420;2023-01-15T08:12:00;0.40;;;0.00;;
20855;SDS011;63058;49.424;8.420;2023-01-15T08:14:45;0.30;;;0.10;;
20855;SDS011;63058;49.424;8.420;2023-01-15T08:17:31;0.03;;;0.03;;
20855;SDS011;63058;49.424;8.420;2023-01-15T08:19:58;0.10;;;0.10;;
20855;SDS011;63058;49.424;8.420;2023-01-15T08:22:24;1.77;;;0.45;;
20855;SDS011;63058;49.424;8.420;2023-01-15T08:24:49;0.60;;;0.10;;
20855;SDS011;63058;49.424;8.420;2023-01-15T08:27:15;0.10;;;0.10;;
20855;SDS011;63058;49.424;8.420;2023-01-15T08:29:40;0.10;;;0.03;;
20855;SDS011;63058;49.424;8.420;2023-01-15T08:32:06;0.17;;;0.10;;
20855;SDS011;63058;49.424;8.420;2023-01-15T08:34:32;0.20;;;0.20;;
20855;SDS011;63058;49.424;8.420;2023-01-15T08:36:58;0.20;;;0.20;;
20855;SDS011;63058;49.424;8.420;2023-01-15T08:39:27;0.20;;;0.13;;
20855;SDS011;63058;49.424;8.420;2023-01-15T08:41:53;0.17;;;0.17;;
20855;SDS011;63058;49.424;8.420;2023-01-15T08:44:20;0.63;;;0.30;;
20855;SDS011;63058;49.424;8.420;2023-01-15T08:46:47;0.30;;;0.30;;
20855;SDS011;63058;49.424;8.420;2023-01-15T08:49:14;0.32;;;0.30;;
20855;SDS011;63058;49.424;8.420;2023-01-15T08:51:39;2.10;;;0.40;;
20855;SDS011;63058;49.424;8.420;2023-01-15T08:54:05;0.33;;;0.30;;
20855;SDS011;63058;49.424;8.420;2023-01-15T08:56:31;0.43;;;0.40;;
20855;SDS011;63058;49.424;8.420;2023-01-15T08:58:56;1.23;;;0.60;;
20855;SDS011;63058;49.424;8.420;2023-01-15T09:01:22;0.70;;;0.30;;
20855;SDS011;63058;49.424;8.420;2023-01-15T09:03:47;0.40;;;0.30;;
20855;SDS011;63058;49.424;8.420;2023-01-15T09:06:13;0.27;;;0.20;;
20855;SDS011;63058;49.424;8.420;2023-01-15T09:08:39;0.63;;;0.20;;
20855;SDS011;63058;49.424;8.420;2023-01-15T09:11:05;0.57;;;0.30;;
20855;SDS011;63058;49.424;8.420;2023-01-15T09:13:34;0.20;;;0.20;;
20855;SDS011;63058;49.424;8.420;2023-01-15T09:16:01;1.33;;;0.55;;
20855;SDS011;63058;49.424;8.420;2023-01-15T09:18:28;0.77;;;0.57;;
20855;SDS011;63058;49.424;8.420;2023-01-15T09:20:54;1.40;;;0.40;;
20855;SDS011;63058;49.424;8.420;2023-01-15T09:23:20;3.25;;;0.40;;
20855;SDS011;63058;49.424;8.420;2023-01-15T09:25:59;0.87;;;0.37;;
20855;SDS011;63058;49.424;8.420;2023-01-15T09:28:26;0.20;;;0.20;;
20855;SDS011;63058;49.424;8.420;2023-01-15T09:30:52;6.50;;;0.43;;
20855;SDS011;63058;49.424;8.420;2023-01-15T09:33:18;3.58;;;0.50;;
20855;SDS011;63058;49.424;8.420;2023-01-15T09:35:45;12.27;;;1.03;;
20855;SDS011;63058;49.424;8.420;2023-01-15T09:38:11;0.90;;;0.40;;
20855;SDS011;63058;49.424;8.420;2023-01-15T09:56:43;0.63;;;0.50;;
20855;SDS011;63058;49.424;8.420;2023-01-15T09:59:14;1.57;;;0.40;;
20855;SDS011;63058;49.424;8.420;2023-01-15T10:01:46;0.57;;;0.43;;
20855;SDS011;63058;49.424;8.420;2023-01-15T10:10:34;0.90;;;0.50;;
20855;SDS011;63058;49.424;8.420;2023-01-15T10:13:27;0.38;;;0.38;;
20855;SDS011;63058;49.424;8.420;2023-01-15T10:16:04;1.00;;;0.30;;
20855;SDS011;63058;49.424;8.420;2023-01-15T10:18:30;0.82;;;0.32;;
20855;SDS011;63058;49.424;8.420;2023-01-15T10:23:51;1.08;;;0.40;;
20855;SDS011;63058;49.424;8.420;2023-01-15T10:43:47;1.33;;;0.50;;
20855;SDS011;63058;49.424;8.420;2023-01-15T10:46:19;1.38;;;0.40;;
20855;SDS011;63058;49.424;8.420;2023-01-15T10:48:49;0.57;;;0.40;;
20855;SDS011;63058;49.424;8.420;2023-01-15T10:51:29;1.30;;;0.60;;
20855;SDS011;63058;49.424;8.420;2023-01-15T10:54:04;0.70;;;0.50;;
20855;SDS011;63058;49.424;8.420;2023-01-15T10:56:59;2.33;;;0.45;;
20855;SDS011;63058;49.424;8.420;2023-01-15T11:00:08;1.10;;;0.70;;
20855;SDS011;63058;49.424;8.420;2023-01-15T11:02:39;1.17;;;0.70;;
20855;SDS011;63058;49.424;8.420;2023-01-15T11:05:14;0.98;;;0.65;;
20855;SDS011;63058;49.424;8.420;2023-01-15T11:07:42;0.93;;;0.60;;
20855;SDS011;63058;49.424;8.420;2023-01-15T11:10:12;1.85;;;0.60;;
20855;SDS011;63058;49.424;8.420;2023-01-15T11:12:42;2.33;;;0.68;;
20855;SDS011;63058;49.424;8.420;2023-01-15T11:15:35;1.10;;;0.50;;
20855;SDS011;63058;49.424;8.420;2023-01-15T11:18:26;1.20;;;0.63;;
20855;SDS011;63058;49.424;8.420;2023-01-15T11:21:17;1.10;;;0.40;;
20855;SDS011;63058;49.424;8.420;2023-01-15T11:23:45;1.05;;;0.40;;
20855;SDS011;63058;49.424;8.420;2023-01-15T11:26:19;1.08;;;0.40;;
20855;SDS011;63058;49.424;8.420;2023-01-15T11:28:47;0.20;;;0.20;;
20855;SDS011;63058;49.424;8.420;2023-01-15T11:31:13;0.28;;;0.20;;
20855;SDS011;63058;49.424;8.420;2023-01-15T11:33:43;0.40;;;0.20;;
20855;SDS011;63058;49.424;8.420;2023-01-15T11:36:29;0.50;;;0.20;;
20855;SDS011;63058;49.424;8.420;2023-01-15T11:38:56;0.20;;;0.20;;
20855;SDS011;63058;49.424;8.420;2023-01-15T11:44:11;0.47;;;0.20;;
20855;SDS011;63058;49.424;8.420;2023-01-15T11:46:55;0.20;;;0.20;;
20855;SDS011;63058;49.424;8.420;2023-01-15T11:49:48;0.10;;;0.10;;
20855;SDS011;63058;49.424;8.420;2023-01-15T11:52:37;0.30;;;0.20;;
20855;SDS011;63058;49.424;8.420;2023-01-15T11:55:14;0.10;;;0.10;;
20855;SDS011;63058;49.424;8.420;2023-01-15T11:57:44;0.13;;;0.13;;
20855;SDS011;63058;49.424;8.420;2023-01-15T12:00:43;0.40;;;0.20;;
20855;SDS011;63058;49.424;8.420;2023-01-15T12:03:14;0.60;;;0.30;;
20855;SDS011;63058;49.424;8.420;2023-01-15T12:16:40;0.90;;;0.30;;
20855;SDS011;63058;49.424;8.420;2023-01-15T12:19:25;0.77;;;0.47;;
20855;SDS011;63058;49.424;8.420;2023-01-15T12:24:43;0.33;;;0.20;;
20855;SDS011;63058;49.424;8.420;2023-01-15T12:29:52;0.80;;;0.20;;
20855;SDS011;63058;49.424;8.420;2023-01-15T12:32:23;0.40;;;0.40;;
20855;SDS011;63058;49.424;8.420;2023-01-15T12:35:00;0.40;;;0.40;;
20855;SDS011;63058;49.424;8.420;2023-01-15T12:37:33;0.43;;;0.40;;
20855;SDS011;63058;49.424;8.420;2023-01-15T12:42:41;0.90;;;0.52;;
20855;SDS011;63058;49.424;8.420;2023-01-15T12:45:28;1.20;;;0.60;;
20855;SDS011;63058;49.424;8.420;2023-01-15T12:48:09;1.58;;;0.70;;
20855;SDS011;63058;49.424;8.420;2023-01-15T12:50:47;3.53;;;0.88;;
20855;SDS011;63058;49.424;8.420;2023-01-15T12:53:35;2.45;;;0.75;;
20855;SDS011;63058;49.424;8.420;2023-01-15T13:01:03;1.35;;;0.50;;
20855;SDS011;63058;49.424;8.420;2023-01-15T13:03:48;1.02;;;0.55;;
20855;SDS011;63058;49.424;8.420;2023-01-15T13:06:19;1.23;;;0.50;;
20855;SDS011;63058;49.424;8.420;2023-01-15T13:11:30;2.70;;;0.70;;
20855;SDS011;63058;49.424;8.420;2023-01-15T13:22:07;2.60;;;0.70;;
20855;SDS011;63058;49.424;8.420;2023-01-15T13:24:53;2.53;;;0.70;;
20855;SDS011;63058;49.424;8.420;2023-01-15T13:27:44;2.45;;;0.57;;
20855;SDS011;63058;49.424;8.420;2023-01-15T13:36:23;3.03;;;0.60;;
20855;SDS011;63058;49.424;8.420;2023-01-15T13:38:54;1.17;;;0.60;;
20855;SDS011;63058;49.424;8.420;2023-01-15T13:41:28;2.10;;;0.68;;
20855;SDS011;63058;49.424;8.420;2023-01-15T13:44:26;1.85;;;0.75;;
20855;SDS011;63058;49.424;8.420;2023-01-15T13:49:35;2.58;;;0.50;;
20855;SDS011;63058;49.424;8.420;2023-01-15T13:52:06;4.68;;;0.90;;
20855;SDS011;63058;49.424;8.420;2023-01-15T13:54:44;1.88;;;0.55;;
20855;SDS011;63058;49.424;8.420;2023-01-15T13:57:31;3.53;;;0.57;;
20855;SDS011;63058;49.424;8.420;2023-01-15T14:00:04;1.73;;;0.60;;
20855;SDS011;63058;49.424;8.420;2023-01-15T14:02:36;7.07;;;1.10;;
20855;SDS011;63058;49.424;8.420;2023-01-15T14:08:01;5.25;;;0.75;;
20855;SDS011;63058;49.424;8.420;2023-01-15T14:10:39;3.42;;;0.80;;
20855;SDS011;63058;49.424;8.420;2023-01-15T14:13:27;3.58;;;0.80;;
20855;SDS011;63058;49.424;8.420;2023-01-15T14:16:01;2.67;;;0.65;;
20855;SDS011;63058;49.424;8.420;2023-01-15T14:18:48;4.32;;;0.88;;
20855;SDS011;63058;49.424;8.420;2023-01-15T14:21:37;1.75;;;0.68;;
20855;SDS011;63058;49.424;8.420;2023-01-15T14:32:50;2.22;;;0.90;;
20855;SDS011;63058;49.424;8.420;2023-01-15T14:35:36;2.95;;;0.70;;
20855;SDS011;63058;49.424;8.420;2023-01-15T14:38:11;2.72;;;1.02;;
20855;SDS011;63058;49.424;8.420;2023-01-15T14:43:27;2.95;;;0.95;;
20855;SDS011;63058;49.424;8.420;2023-01-15T14:45:57;3.22;;;0.70;;
20855;SDS011;63058;49.424;8.420;2023-01-15T14:48:49;3.45;;;0.70;;
20855;SDS011;63058;49.424;8.420;2023-01-15T15:01:57;2.95;;;0.80;;
20855;SDS011;63058;49.424;8.420;2023-01-15T15:04:39;3.28;;;0.90;;
20855;SDS011;63058;49.424;8.420;2023-01-15T15:07:19;2.33;;;0.85;;
20855;SDS011;63058;49.424;8.420;2023-01-15T15:09:55;2.85;;;0.77;;
20855;SDS011;63058;49.424;8.420;2023-01-15T15:12:30;2.25;;;0.55;;
20855;SDS011;63058;49.424;8.420;2023-01-15T15:22:43;4.05;;;0.98;;
20855;SDS011;63058;49.424;8.420;2023-01-15T15:25:15;4.20;;;1.00;;
20855;SDS011;63058;49.424;8.420;2023-01-15T15:27:45;5.30;;;0.80;;
20855;SDS011;63058;49.424;8.420;2023-01-15T15:30:11;3.10;;;0.88;;
20855;SDS011;63058;49.424;8.420;2023-01-15T15:32:39;2.72;;;0.70;;
20855;SDS011;63058;49.424;8.420;2023-01-15T15:35:21;2.80;;;0.82;;
20855;SDS011;63058;49.424;8.420;2023-01-15T15:37:51;2.35;;;0.73;;
20855;SDS011;63058;49.424;8.420;2023-01-15T15:40:18;3.50;;;0.60;;
20855;SDS011;63058;49.424;8.420;2023-01-15T15:43:00;1.35;;;0.70;;
20855;SDS011;63058;49.424;8.420;2023-01-15T15:45:55;2.20;;;0.80;;
20855;SDS011;63058;49.424;8.420;2023-01-15T15:48:40;3.23;;;0.70;;
20855;SDS011;63058;49.424;8.420;2023-01-15T15:56:49;2.55;;;0.82;;
20855;SDS011;63058;49.424;8.420;2023-01-15T15:59:29;2.10;;;0.73;;
20855;SDS011;63058;49.424;8.420;2023-01-15T16:04:47;2.50;;;0.80;;
20855;SDS011;63058;49.424;8.420;2023-01-15T16:07:24;0.90;;;0.50;;
20855;SDS011;63058;49.424;8.420;2023-01-15T16:09:52;2.03;;;0.63;;
20855;SDS011;63058;49.424;8.420;2023-01-15T16:12:22;4.25;;;1.02;;
20855;SDS011;63058;49.424;8.420;2023-01-15T16:14:50;1.70;;;0.60;;
20855;SDS011;63058;49.424;8.420;2023-01-15T16:17:16;1.33;;;0.70;;
20855;SDS011;63058;49.424;8.420;2023-01-15T16:19:42;3.22;;;0.85;;
20855;SDS011;63058;49.424;8.420;2023-01-15T16:22:10;2.97;;;0.70;;
20855;SDS011;63058;49.424;8.420;2023-01-15T16:24:39;2.33;;;0.80;;
20855;SDS011;63058;49.424;8.420;2023-01-15T16:27:05;2.57;;;0.60;;
20855;SDS011;63058;49.424;8.420;2023-01-15T16:29:35;1.77;;;0.70;;
20855;SDS011;63058;49.424;8.420;2023-01-15T16:32:11;4.07;;;0.93;;
20855;SDS011;63058;49.424;8.420;2023-01-15T16:34:38;1.87;;;0.83;;
20855;SDS011;63058;49.424;8.420;2023-01-15T16:37:10;2.37;;;0.80;;
20855;SDS011;63058;49.424;8.420;2023-01-15T16:39:48;4.67;;;1.10;;
20855;SDS011;63058;49.424;8.420;2023-01-15T16:42:31;4.83;;;0.93;;
20855;SDS011;63058;49.424;8.420;2023-01-15T16:45:05;2.83;;;0.80;;
20855;SDS011;63058;49.424;8.420;2023-01-15T16:50:32;2.83;;;1.00;;
20855;SDS011;63058;49.424;8.420;2023-01-15T16:53:15;1.97;;;0.80;;
20855;SDS011;63058;49.424;8.420;2023-01-15T16:55:54;3.47;;;0.93;;
20855;SDS011;63058;49.424;8.420;2023-01-15T16:58:31;3.23;;;1.13;;
20855;SDS011;63058;49.424;8.420;2023-01-15T17:00:57;3.03;;;0.80;;
20855;SDS011;63058;49.424;8.420;2023-01-15T17:03:24;2.03;;;0.80;;
20855;SDS011;63058;49.424;8.420;2023-01-15T17:05:56;4.30;;;1.05;;
20855;SDS011;63058;49.424;8.420;2023-01-15T17:11:01;3.33;;;0.97;;
20855;SDS011;63058;49.424;8.420;2023-01-15T17:13:35;2.57;;;0.70;;
20855;SDS011;63058;49.424;8.420;2023-01-15T17:18:33;3.65;;;0.93;;
20855;SDS011;63058;49.424;8.420;2023-01-15T17:21:00;4.20;;;0.80;;
20855;SDS011;63058;49.424;8.420;2023-01-15T17:23:26;4.10;;;0.70;;
20855;SDS011;63058;49.424;8.420;2023-01-15T17:25:54;3.30;;;0.97;;
20855;SDS011;63058;49.424;8.420;2023-01-15T17:28:20;3.85;;;1.00;;
20855;SDS011;63058;49.424;8.420;2023-01-15T17:30:48;4.70;;;1.53;;
20855;SDS011;63058;49.424;8.420;2023-01-15T17:33:16;4.50;;;1.27;;
20855;SDS011;63058;49.424;8.420;2023-01-15T17:35:42;4.43;;;1.10;;
20855;SDS011;63058;49.424;8.420;2023-01-15T17:38:12;4.00;;;1.30;;
20855;SDS011;63058;49.424;8.420;2023-01-15T17:40:38;2.40;;;1.10;;
20855;SDS011;63058;49.424;8.420;2023-01-15T17:43:05;4.75;;;1.20;;
20855;SDS011;63058;49.424;8.420;2023-01-15T17:45:31;3.80;;;1.42;;
20855;SDS011;63058;49.424;8.420;2023-01-15T17:47:57;2.53;;;0.97;;
20855;SDS011;63058;49.424;8.420;2023-01-15T17:50:24;1.90;;;0.80;;
20855;SDS011;63058;49.424;8.420;2023-01-15T17:52:49;3.07;;;1.30;;
20855;SDS011;63058;49.424;8.420;2023-01-15T17:55:19;3.07;;;0.90;;
20855;SDS011;63058;49.424;8.420;2023-01-15T17:58:05;6.67;;;1.00;;
20855;SDS011;63058;49.424;8.420;2023-01-15T18:00:49;3.47;;;1.10;;
20855;SDS011;63058;49.424;8.420;2023-01-15T18:03:35;2.93;;;1.20;;
20855;SDS011;63058;49.424;8.420;2023-01-15T18:06:26;4.13;;;1.30;;
20855;SDS011;63058;49.424;8.420;2023-01-15T18:08:52;2.53;;;1.00;;
20855;SDS011;63058;49.424;8.420;2023-01-15T18:11:21;2.83;;;1.07;;
20855;SDS011;63058;49.424;8.420;2023-01-15T18:13:46;3.13;;;1.30;;
20855;SDS011;63058;49.424;8.420;2023-01-15T18:16:12;3.27;;;1.17;;
20855;SDS011;63058;49.424;8.420;2023-01-15T18:18:39;4.00;;;1.07;;
20855;SDS011;63058;49.424;8.420;2023-01-15T18:21:05;2.47;;;1.00;;
20855;SDS011;63058;49.424;8.420;2023-01-15T18:23:31;2.47;;;0.73;;
20855;SDS011;63058;49.424;8.420;2023-01-15T18:26:02;2.90;;;1.03;;
20855;SDS011;63058;49.424;8.420;2023-01-15T18:28:32;2.60;;;0.90;;
20855;SDS011;63058;49.424;8.420;2023-01-15T18:31:02;3.03;;;0.97;;
20855;SDS011;63058;49.424;8.420;2023-01-15T18:34:03;2.77;;;0.93;;
20855;SDS011;63058;49.424;8.420;2023-01-15T18:36:29;3.20;;;1.20;;
20855;SDS011;63058;49.424;8.420;2023-01-15T18:42:19;3.43;;;1.00;;
20855;SDS011;63058;49.424;8.420;2023-01-15T18:48:40;3.47;;;1.20;;
20855;SDS011;63058;49.424;8.420;2023-01-15T18:51:09;2.97;;;1.30;;
20855;SDS011;63058;49.424;8.420;2023-01-15T18:53:35;2.67;;;1.10;;
20855;SDS011;63058;49.424;8.420;2023-01-15T18:56:08;2.47;;;1.17;;
20855;SDS011;63058;49.424;8.420;2023-01-15T18:59:25;3.87;;;1.23;;
20855;SDS011;63058;49.424;8.420;2023-01-15T19:01:56;2.60;;;1.07;;
20855;SDS011;63058;49.424;8.420;2023-01-15T19:04:46;4.10;;;1.43;;
20855;SDS011;63058;49.424;8.420;2023-01-15T19:10:09;4.50;;;1.33;;
20855;SDS011;63058;49.424;8.420;2023-01-15T19:12:55;3.23;;;1.10;;
20855;SDS011;63058;49.424;8.420;2023-01-15T19:16:16;3.53;;;0.93;;
20855;SDS011;63058;49.424;8.420;2023-01-15T19:22:19;3.40;;;1.00;;